sensor_id;sensor_type;location;lat;lon;timestamp;P1;durP1;ratioP1;P2;durP2;ratioP2
27412;SDS011;14871;52.702;5.230;2023-03-22T00:02:23;14.48;;;1.98;;
27412;SDS011;14871;52.702;5.230;2023-03-22T00:04:50;14.00;;;2.10;;
27412;SDS011;14871;52.702;5.230;2023-03-22T00:07:16;9.18;;;1.67;;
27412;SDS011;14871;52.702;5.230;2023-03-22T00:09:42;10.25;;;2.00;;
27412;SDS011;14871;52.702;5.230;2023-03-22T00:12:07;10.13;;;2.20;;
27412;SDS011;14871;52.702;5.230;2023-03-22T00:14:33;10.20;;;1.58;;
27412;SDS011;14871;52.702;5.230;2023-03-22T00:16:59;10.20;;;2.08;;
27412;SDS011;14871;52.702;5.230;2023-03-22T00:19:25;11.02;;;2.50;;
27412;SDS011;14871;52.702;5.230;2023-03-22T00:21:53;11.93;;;1.80;;
27412;SDS011;14871;52.702;5.230;2023-03-22T00:24:19;10.80;;;2.00;;
27412;SDS011;14871;52.702;5.230;2023-03-22T00:26:45;10.63;;;1.70;;
27412;SDS011;14871;52.702;5.230;2023-03-22T00:29:11;11.32;;;2.63;;
27412;SDS011;14871;52.702;5.230;2023-03-22T00:31:37;10.25;;;2.08;;
27412;SDS011;14871;52.702;5.230;2023-03-22T00:34:03;6.75;;;1.95;;
27412;SDS011;14871;52.702;5.230;2023-03-22T00:36:28;8.60;;;1.73;;
27412;SDS011;14871;52.702;5.230;2023-03-22T00:38:54;10.77;;;2.08;;
27412;SDS011;14871;52.702;5.230;2023-03-22T00:41:20;12.25;;;2.20;;
27412;SDS011;14871;52.702;5.230;2023-03-22T00:43:48;9.50;;;1.70;;
27412;SDS011;14871;52.702;5.230;2023-03-22T00:46:14;10.35;;;2.00;;
27412;SDS011;14871;52.702;5.230;2023-03-22T00:48:41;6.95;;;1.60;;
27412;SDS011;14871;52.702;5.230;2023-03-22T00:51:07;11.45;;;2.15;;
27412;SDS011;14871;52.702;5.230;2023-03-22T00:53:34;9.20;;;1.90;;
27412;SDS011;14871;52.702;5.230;2023-03-22T00:56:00;6.00;;;1.52;;
27412;SDS011;14871;52.702;5.230;2023-03-22T00:58:26;7.82;;;1.90;;
27412;SDS011;14871;52.702;5.230;2023-03-22T01:00:52;8.20;;;1.70;;
27412;SDS011;14871;52.702;5.230;2023-03-22T01:03:18;7.47;;;1.67;;
27412;SDS011;14871;52.702;5.230;2023-03-22T01:05:45;11.48;;;2.10;;
27412;SDS011;14871;52.702;5.230;2023-03-22T01:08:13;13.93;;;2.03;;
27412;SDS011;14871;52.702;5.230;2023-03-22T01:10:41;8.75;;;2.22;;
27412;SDS011;14871;52.702;5.230;2023-03-22T01:13:07;10.15;;;2.13;;
27412;SDS011;14871;52.702;5.230;2023-03-22T01:15:33;9.55;;;2.22;;
27412;SDS011;14871;52.702;5.230;2023-03-22T01:17:59;9.38;;;2.78;;
27412;SDS011;14871;52.702;5.230;2023-03-22T01:20:25;11.48;;;2.13;;
27412;SDS011;14871;52.702;5.230;2023-03-22T01:22:51;12.77;;;1.90;;
27412;SDS011;14871;52.702;5.230;2023-03-22T01:25:17;13.20;;;1.90;;
27412;SDS011;14871;52.702;5.230;2023-03-22T01:27:43;9.75;;;2.55;;
27412;SDS011;14871;52.702;5.230;2023-03-22T01:30:09;12.00;;;2.30;;
27412;SDS011;14871;52.702;5.230;2023-03-22T01:32:35;17.23;;;2.67;;
27412;SDS011;14871;52.702;5.230;2023-03-22T01:35:02;11.15;;;2.08;;
27412;SDS011;14871;52.702;5.230;2023-03-22T01:37:28;12.27;;;1.95;;
27412;SDS011;14871;52.702;5.230;2023-03-22T01:39:54;16.05;;;3.30;;
27412;SDS011;14871;52.702;5.230;2023-03-22T01:42:20;8.80;;;2.45;;
27412;SDS011;14871;52.702;5.230;2023-03-22T01:47:37;16.83;;;3.20;;
27412;SDS011;14871;52.702;5.230;2023-03-22T01:50:12;14.30;;;2.72;;
27412;SDS011;14871;52.702;5.230;2023-03-22T01:52:39;15.52;;;3.50;;
27412;SDS011;14871;52.702;5.230;2023-03-22T01:55:05;8.60;;;2.78;;
27412;SDS011;14871;52.702;5.230;2023-03-22T01:57:33;16.05;;;3.47;;
27412;SDS011;14871;52.702;5.230;2023-03-22T02:00:03;15.85;;;3.40;;
27412;SDS011;14871;52.702;5.230;2023-03-22T02:02:39;14.75;;;2.30;;
27412;SDS011;14871;52.702;5.230;2023-03-22T02:05:09;13.45;;;2.55;;
27412;SDS011;14871;52.702;5.230;2023-03-22T02:07:36;14.15;;;2.33;;
27412;SDS011;14871;52.702;5.230;2023-03-22T02:10:03;14.57;;;2.45;;
27412;SDS011;14871;52.702;5.230;2023-03-22T02:21:05;10.45;;;3.20;;
27412;SDS011;14871;52.702;5.230;2023-03-22T02:24:00;10.73;;;2.90;;
27412;SDS011;14871;52.702;5.230;2023-03-22T02:40:46;13.35;;;4.15;;
27412;SDS011;14871;52.702;5.230;2023-03-22T02:49:14;14.60;;;3.72;;
27412;SDS011;14871;52.702;5.230;2023-03-22T02:51:46;18.13;;;3.97;;
27412;SDS011;14871;52.702;5.230;2023-03-22T02:54:21;11.05;;;3.42;;
27412;SDS011;14871;52.702;5.230;2023-03-22T02:57:08;13.80;;;4.18;;
27412;SDS011;14871;52.702;5.230;2023-03-22T02:59:39;16.58;;;4.13;;
27412;SDS011;14871;52.702;5.230;2023-03-22T03:02:08;15.30;;;3.00;;
27412;SDS011;14871;52.702;5.230;2023-03-22T03:04:37;12.23;;;3.55;;
27412;SDS011;14871;52.702;5.230;2023-03-22T03:07:08;11.93;;;3.63;;
27412;SDS011;14871;52.702;5.230;2023-03-22T03:09:37;14.80;;;5.13;;
27412;SDS011;14871;52.702;5.230;2023-03-22T03:12:12;10.13;;;3.65;;
27412;SDS011;14871;52.702;5.230;2023-03-22T03:14:45;9.50;;;2.90;;
27412;SDS011;14871;52.702;5.230;2023-03-22T03:17:55;12.18;;;3.95;;
27412;SDS011;14871;52.702;5.230;2023-03-22T03:28:32;14.95;;;3.55;;
27412;SDS011;14871;52.702;5.230;2023-03-22T03:33:50;10.52;;;2.88;;
27412;SDS011;14871;52.702;5.230;2023-03-22T03:36:54;12.65;;;4.18;;
27412;SDS011;14871;52.702;5.230;2023-03-22T03:39:29;11.60;;;4.18;;
27412;SDS011;14871;52.702;5.230;2023-03-22T03:41:58;10.13;;;3.63;;
27412;SDS011;14871;52.702;5.230;2023-03-22T03:44:26;10.88;;;4.55;;
27412;SDS011;14871;52.702;5.230;2023-03-22T03:46:54;9.57;;;4.22;;
27412;SDS011;14871;52.702;5.230;2023-03-22T03:49:21;13.50;;;5.20;;
27412;SDS011;14871;52.702;5.230;2023-03-22T03:51:48;19.20;;;6.60;;
27412;SDS011;14871;52.702;5.230;2023-03-22T03:54:16;15.10;;;6.07;;
27412;SDS011;14871;52.702;5.230;2023-03-22T03:56:42;14.95;;;6.35;;
27412;SDS011;14871;52.702;5.230;2023-03-22T03:59:11;12.95;;;5.85;;
27412;SDS011;14871;52.702;5.230;2023-03-22T04:01:40;11.50;;;7.00;;
27412;SDS011;14871;52.702;5.230;2023-03-22T04:04:18;15.57;;;7.47;;
27412;SDS011;14871;52.702;5.230;2023-03-22T04:06:50;18.08;;;7.55;;
27412;SDS011;14871;52.702;5.230;2023-03-22T04:09:26;19.70;;;9.10;;
27412;SDS011;14871;52.702;5.230;2023-03-22T04:11:54;15.85;;;8.18;;
27412;SDS011;14871;52.702;5.230;2023-03-22T04:14:21;12.40;;;7.55;;
27412;SDS011;14871;52.702;5.230;2023-03-22T04:16:47;15.57;;;8.60;;
27412;SDS011;14871;52.702;5.230;2023-03-22T04:19:13;14.57;;;8.85;;
27412;SDS011;14871;52.702;5.230;2023-03-22T04:21:39;17.60;;;8.77;;
27412;SDS011;14871;52.702;5.230;2023-03-22T04:24:05;15.90;;;8.32;;
27412;SDS011;14871;52.702;5.230;2023-03-22T04:26:31;16.23;;;8.13;;
27412;SDS011;14871;52.702;5.230;2023-03-22T04:28:57;20.88;;;9.20;;
27412;SDS011;14871;52.702;5.230;2023-03-22T04:31:24;16.52;;;9.00;;
27412;SDS011;14871;52.702;5.230;2023-03-22T04:33:50;16.10;;;9.38;;
27412;SDS011;14871;52.702;5.230;2023-03-22T04:36:20;21.08;;;8.95;;
27412;SDS011;14871;52.702;5.230;2023-03-22T04:38:47;19.02;;;8.38;;
27412;SDS011;14871;52.702;5.230;2023-03-22T04:41:13;16.00;;;9.45;;
27412;SDS011;14871;52.702;5.230;2023-03-22T04:43:39;21.77;;;9.25;;
27412;SDS011;14871;52.702;5.230;2023-03-22T04:46:05;16.33;;;10.20;;
27412;SDS011;14871;52.702;5.230;2023-03-22T04:48:34;18.42;;;10.43;;
27412;SDS011;14871;52.702;5.230;2023-03-22T04:51:05;16.65;;;8.95;;
27412;SDS011;14871;52.702;5.230;2023-03-22T04:53:32;16.23;;;10.23;;
27412;SDS011;14871;52.702;5.230;2023-03-22T04:56:02;21.02;;;10.75;;
27412;SDS011;14871;52.702;5.230;2023-03-22T04:58:34;20.35;;;10.52;;
27412;SDS011;14871;52.702;5.230;2023-03-22T05:01:06;18.67;;;10.50;;
27412;SDS011;14871;52.702;5.230;2023-03-22T05:03:35;17.85;;;10.90;;
27412;SDS011;14871;52.702;5.230;2023-03-22T05:06:01;21.98;;;10.50;;
27412;SDS011;14871;52.702;5.230;2023-03-22T05:08:29;23.90;;;11.90;;
27412;SDS011;14871;52.702;5.230;2023-03-22T05:10:56;22.27;;;12.40;;
27412;SDS011;14871;52.702;5.230;2023-03-22T05:13:23;22.25;;;12.07;;
27412;SDS011;14871;52.702;5.230;2023-03-22T05:15:50;21.42;;;12.55;;
27412;SDS011;14871;52.702;5.230;2023-03-22T05:18:17;24.00;;;12.55;;
27412;SDS011;14871;52.702;5.230;2023-03-22T05:20:50;20.25;;;12.52;;
27412;SDS011;14871;52.702;5.230;2023-03-22T05:23:18;24.25;;;13.07;;
27412;SDS011;14871;52.702;5.230;2023-03-22T05:25:45;24.05;;;13.38;;
27412;SDS011;14871;52.702;5.230;2023-03-22T05:28:12;25.65;;;14.02;;
27412;SDS011;14871;52.702;5.230;2023-03-22T05:30:41;22.15;;;12.95;;
27412;SDS011;14871;52.702;5.230;2023-03-22T05:33:07;22.23;;;12.25;;
27412;SDS011;14871;52.702;5.230;2023-03-22T05:35:34;19.10;;;12.38;;
27412;SDS011;14871;52.702;5.230;2023-03-22T05:38:02;24.98;;;14.45;;
27412;SDS011;14871;52.702;5.230;2023-03-22T05:40:28;22.30;;;13.27;;
27412;SDS011;14871;52.702;5.230;2023-03-22T05:42:54;26.00;;;14.63;;
27412;SDS011;14871;52.702;5.230;2023-03-22T05:45:20;23.42;;;12.95;;
27412;SDS011;14871;52.702;5.230;2023-03-22T05:47:47;22.25;;;14.20;;
27412;SDS011;14871;52.702;5.230;2023-03-22T05:50:17;23.55;;;15.13;;
27412;SDS011;14871;52.702;5.230;2023-03-22T05:52:44;23.13;;;14.02;;
27412;SDS011;14871;52.702;5.230;2023-03-22T05:55:11;25.83;;;14.75;;
27412;SDS011;14871;52.702;5.230;2023-03-22T05:57:38;28.48;;;14.52;;
27412;SDS011;14871;52.702;5.230;2023-03-22T06:00:05;25.35;;;14.35;;
27412;SDS011;14871;52.702;5.230;2023-03-22T06:05:10;23.60;;;14.95;;
27412;SDS011;14871;52.702;5.230;2023-03-22T06:07:37;25.63;;;15.35;;
27412;SDS011;14871;52.702;5.230;2023-03-22T06:10:04;25.92;;;14.00;;
27412;SDS011;14871;52.702;5.230;2023-03-22T06:12:31;26.67;;;14.57;;
27412;SDS011;14871;52.702;5.230;2023-03-22T06:14:57;21.30;;;12.90;;
27412;SDS011;14871;52.702;5.230;2023-03-22T06:17:23;23.75;;;14.32;;
27412;SDS011;14871;52.702;5.230;2023-03-22T06:19:49;18.20;;;11.90;;
27412;SDS011;14871;52.702;5.230;2023-03-22T06:22:16;21.83;;;14.30;;
27412;SDS011;14871;52.702;5.230;2023-03-22T06:24:41;20.17;;;11.82;;
27412;SDS011;14871;52.702;5.230;2023-03-22T06:27:07;22.77;;;13.15;;
27412;SDS011;14871;52.702;5.230;2023-03-22T06:29:33;22.48;;;12.95;;
27412;SDS011;14871;52.702;5.230;2023-03-22T06:31:59;21.13;;;12.60;;
27412;SDS011;14871;52.702;5.230;2023-03-22T06:34:25;22.20;;;12.48;;
27412;SDS011;14871;52.702;5.230;2023-03-22T06:36:51;21.98;;;12.15;;
27412;SDS011;14871;52.702;5.230;2023-03-22T06:39:17;18.52;;;11.13;;
27412;SDS011;14871;52.702;5.230;2023-03-22T06:41:44;20.83;;;11.52;;
27412;SDS011;14871;52.702;5.230;2023-03-22T06:44:10;21.25;;;11.23;;
27412;SDS011;14871;52.702;5.230;2023-03-22T06:46:36;13.73;;;9.40;;
27412;SDS011;14871;52.702;5.230;2023-03-22T06:49:02;17.63;;;9.13;;
27412;SDS011;14871;52.702;5.230;2023-03-22T06:51:27;25.30;;;9.95;;
27412;SDS011;14871;52.702;5.230;2023-03-22T06:53:53;15.98;;;9.45;;
27412;SDS011;14871;52.702;5.230;2023-03-22T06:56:18;18.13;;;9.35;;
27412;SDS011;14871;52.702;5.230;2023-03-22T06:58:44;16.48;;;8.23;;
27412;SDS011;14871;52.702;5.230;2023-03-22T07:01:10;15.00;;;7.18;;
27412;SDS011;14871;52.702;5.230;2023-03-22T07:03:36;15.18;;;7.88;;
27412;SDS011;14871;52.702;5.230;2023-03-22T07:06:02;20.25;;;8.00;;
27412;SDS011;14871;52.702;5.230;2023-03-22T07:08:28;17.50;;;7.80;;
27412;SDS011;14871;52.702;5.230;2023-03-22T07:10:55;17.33;;;8.10;;
27412;SDS011;14871;52.702;5.230;2023-03-22T07:13:20;15.57;;;7.55;;
27412;SDS011;14871;52.702;5.230;2023-03-22T07:15:46;16.05;;;6.97;;
27412;SDS011;14871;52.702;5.230;2023-03-22T07:18:12;12.43;;;6.65;;
27412;SDS011;14871;52.702;5.230;2023-03-22T07:20:37;13.25;;;6.80;;
27412;SDS011;14871;52.702;5.230;2023-03-22T07:23:05;17.95;;;6.47;;
27412;SDS011;14871;52.702;5.230;2023-03-22T07:25:32;11.48;;;5.35;;
27412;SDS011;14871;52.702;5.230;2023-03-22T07:27:59;13.38;;;5.50;;
27412;SDS011;14871;52.702;5.230;2023-03-22T07:30:24;13.73;;;5.90;;
27412;SDS011;14871;52.702;5.230;2023-03-22T07:32:50;11.63;;;5.20;;
27412;SDS011;14871;52.702;5.230;2023-03-22T07:35:16;11.60;;;4.93;;
27412;SDS011;14871;52.702;5.230;2023-03-22T07:37:42;12.60;;;5.15;;
27412;SDS011;14871;52.702;5.230;2023-03-22T07:40:09;15.43;;;5.07;;
27412;SDS011;14871;52.702;5.230;2023-03-22T07:42:35;12.30;;;4.93;;
27412;SDS011;14871;52.702;5.230;2023-03-22T07:45:01;11.10;;;4.50;;
27412;SDS011;14871;52.702;5.230;2023-03-22T07:47:27;17.75;;;4.65;;
27412;SDS011;14871;52.702;5.230;2023-03-22T07:49:53;13.30;;;4.40;;
27412;SDS011;14871;52.702;5.230;2023-03-22T07:52:18;12.63;;;4.20;;
27412;SDS011;14871;52.702;5.230;2023-03-22T07:54:44;10.77;;;4.00;;
27412;SDS011;14871;52.702;5.230;2023-03-22T07:57:10;15.38;;;5.50;;
27412;SDS011;14871;52.702;5.230;2023-03-22T07:59:35;10.35;;;4.10;;
27412;SDS011;14871;52.702;5.230;2023-03-22T08:02:01;14.23;;;3.65;;
27412;SDS011;14871;52.702;5.230;2023-03-22T08:04:27;12.98;;;3.90;;
27412;SDS011;14871;52.702;5.230;2023-03-22T08:06:54;15.30;;;4.03;;
27412;SDS011;14871;52.702;5.230;2023-03-22T08:09:22;14.20;;;4.20;;
27412;SDS011;14871;52.702;5.230;2023-03-22T08:11:49;7.50;;;2.40;;
27412;SDS011;14871;52.702;5.230;2023-03-22T08:14:15;16.13;;;4.55;;
27412;SDS011;14871;52.702;5.230;2023-03-22T08:16:41;10.07;;;3.83;;
27412;SDS011;14871;52.702;5.230;2023-03-22T08:19:08;12.60;;;4.32;;
27412;SDS011;14871;52.702;5.230;2023-03-22T08:21:35;9.20;;;4.10;;
27412;SDS011;14871;52.702;5.230;2023-03-22T08:24:01;15.80;;;4.95;;
27412;SDS011;14871;52.702;5.230;2023-03-22T08:26:26;12.18;;;5.15;;
27412;SDS011;14871;52.702;5.230;2023-03-22T08:28:52;14.15;;;4.40;;
27412;SDS011;14871;52.702;5.230;2023-03-22T08:31:18;13.13;;;4.60;;
27412;SDS011;14871;52.702;5.230;2023-03-22T08:33:44;20.10;;;5.25;;
27412;SDS011;14871;52.702;5.230;2023-03-22T08:36:11;13.77;;;5.15;;
27412;SDS011;14871;52.702;5.230;2023-03-22T08:38:40;15.35;;;5.10;;
27412;SDS011;14871;52.702;5.230;2023-03-22T08:41:06;11.73;;;3.92;;
27412;SDS011;14871;52.702;5.230;2023-03-22T08:43:32;17.90;;;5.13;;
27412;SDS011;14871;52.702;5.230;2023-03-22T08:45:58;10.32;;;4.47;;
27412;SDS011;14871;52.702;5.230;2023-03-22T08:48:24;17.15;;;4.82;;
27412;SDS011;14871;52.702;5.230;2023-03-22T08:50:52;12.75;;;4.05;;
27412;SDS011;14871;52.702;5.230;2023-03-22T08:53:18;10.90;;;3.95;;
27412;SDS011;14871;52.702;5.230;2023-03-22T08:55:44;15.45;;;5.00;;
27412;SDS011;14871;52.702;5.230;2023-03-22T08:58:10;14.95;;;4.50;;
27412;SDS011;14871;52.702;5.230;2023-03-22T09:00:36;12.30;;;5.15;;
27412;SDS011;14871;52.702;5.230;2023-03-22T09:03:03;12.50;;;5.05;;
27412;SDS011;14871;52.702;5.230;2023-03-22T09:05:29;17.02;;;5.18;;
27412;SDS011;14871;52.702;5.230;2023-03-22T09:07:55;14.88;;;6.13;;
27412;SDS011;14871;52.702;5.230;2023-03-22T09:10:20;13.00;;;5.22;;
27412;SDS011;14871;52.702;5.230;2023-03-22T09:12:46;10.38;;;4.75;;
27412;SDS011;14871;52.702;5.230;2023-03-22T09:15:12;9.07;;;4.50;;
27412;SDS011;14871;52.702;5.230;2023-03-22T09:17:38;11.18;;;4.35;;
27412;SDS011;14871;52.702;5.230;2023-03-22T09:20:04;12.10;;;4.35;;
27412;SDS011;14871;52.702;5.230;2023-03-22T09:22:31;9.32;;;4.10;;
27412;SDS011;14871;52.702;5.230;2023-03-22T09:24:56;14.50;;;5.22;;
27412;SDS011;14871;52.702;5.230;2023-03-22T09:27:22;14.48;;;4.57;;
27412;SDS011;14871;52.702;5.230;2023-03-22T09:29:48;13.40;;;4.32;;
27412;SDS011;14871;52.702;5.230;2023-03-22T09:32:15;15.38;;;4.05;;
27412;SDS011;14871;52.702;5.230;2023-03-22T09:34:41;12.18;;;4.18;;
27412;SDS011;14871;52.702;5.230;2023-03-22T09:37:07;15.23;;;4.68;;
27412;SDS011;14871;52.702;5.230;2023-03-22T09:39:32;10.27;;;3.10;;
27412;SDS011;14871;52.702;5.230;2023-03-22T09:42:03;13.63;;;3.70;;
27412;SDS011;14871;52.702;5.230;2023-03-22T09:44:33;16.83;;;5.47;;
27412;SDS011;14871;52.702;5.230;2023-03-22T09:47:04;10.85;;;4.43;;
27412;SDS011;14871;52.702;5.230;2023-03-22T09:49:38;14.68;;;5.07;;
27412;SDS011;14871;52.702;5.230;2023-03-22T09:52:09;8.20;;;3.72;;
27412;SDS011;14871;52.702;5.230;2023-03-22T09:54:38;9.98;;;3.45;;
27412;SDS011;14871;52.702;5.230;2023-03-22T10:10:22;12.55;;;4.25;;
27412;SDS011;14871;52.702;5.230;2023-03-22T10:12:53;17.15;;;3.95;;
27412;SDS011;14871;52.702;5.230;2023-03-22T10:16:15;12.60;;;4.72;;
27412;SDS011;14871;52.702;5.230;2023-03-22T10:18:36;10.98;;;4.72;;
27412;SDS011;14871;52.702;5.230;2023-03-22T10:21:12;12.68;;;4.55;;
27412;SDS011;14871;52.702;5.230;2023-03-22T10:23:57;19.25;;;4.88;;
27412;SDS011;14871;52.702;5.230;2023-03-22T10:26:36;13.85;;;5.07;;
27412;SDS011;14871;52.702;5.230;2023-03-22T10:29:11;10.40;;;4.05;;
27412;SDS011;14871;52.702;5.230;2023-03-22T10:31:42;9.98;;;4.63;;
27412;SDS011;14871;52.702;5.230;2023-03-22T10:34:20;9.90;;;4.28;;
27412;SDS011;14871;52.702;5.230;2023-03-22T10:36:48;14.77;;;5.90;;
27412;SDS011;14871;52.702;5.230;2023-03-22T10:42:02;14.38;;;5.18;;
27412;SDS011;14871;52.702;5.230;2023-03-22T10:44:36;9.30;;;4.95;;
27412;SDS011;14871;52.702;5.230;2023-03-22T10:47:12;11.65;;;5.47;;
27412;SDS011;14871;52.702;5.230;2023-03-22T10:49:48;9.27;;;4.88;;
27412;SDS011;14871;52.702;5.230;2023-03-22T10:55:05;13.55;;;4.35;;
27412;SDS011;14871;52.702;5.230;2023-03-22T10:57:35;13.45;;;4.45;;
27412;SDS011;14871;52.702;5.230;2023-03-22T11:00:01;6.35;;;4.05;;
27412;SDS011;14871;52.702;5.230;2023-03-22T11:02:33;6.43;;;4.90;;
27412;SDS011;14871;52.702;5.230;2023-03-22T11:05:00;10.15;;;3.65;;
27412;SDS011;14871;52.702;5.230;2023-03-22T11:07:32;8.15;;;4.93;;
27412;SDS011;14871;52.702;5.230;2023-03-22T11:15:31;13.75;;;5.03;;
27412;SDS011;14871;52.702;5.230;2023-03-22T11:18:00;12.70;;;3.95;;
27412;SDS011;14871;52.702;5.230;2023-03-22T11:20:32;9.50;;;4.78;;
27412;SDS011;14871;52.702;5.230;2023-03-22T11:22:59;6.85;;;4.68;;
27412;SDS011;14871;52.702;5.230;2023-03-22T11:25:28;10.55;;;5.63;;
27412;SDS011;14871;52.702;5.230;2023-03-22T11:31:26;12.60;;;5.50;;
27412;SDS011;14871;52.702;5.230;2023-03-22T11:33:34;12.18;;;5.18;;
27412;SDS011;14871;52.702;5.230;2023-03-22T11:36:02;14.15;;;5.10;;
27412;SDS011;14871;52.702;5.230;2023-03-22T11:38:39;12.50;;;5.75;;
27412;SDS011;14871;52.702;5.230;2023-03-22T11:41:08;11.68;;;5.95;;
27412;SDS011;14871;52.702;5.230;2023-03-22T11:43:45;10.50;;;5.60;;
27412;SDS011;14871;52.702;5.230;2023-03-22T11:46:15;11.00;;;6.38;;
27412;SDS011;14871;52.702;5.230;2023-03-22T11:48:43;9.60;;;5.93;;
27412;SDS011;14871;52.702;5.230;2023-03-22T11:51:12;10.30;;;6.13;;
27412;SDS011;14871;52.702;5.230;2023-03-22T11:53:43;8.13;;;5.60;;
27412;SDS011;14871;52.702;5.230;2023-03-22T11:56:14;9.88;;;5.85;;
27412;SDS011;14871;52.702;5.230;2023-03-22T12:04:29;9.85;;;6.32;;
27412;SDS011;14871;52.702;5.230;2023-03-22T12:07:00;9.50;;;6.38;;
27412;SDS011;14871;52.702;5.230;2023-03-22T12:09:48;11.23;;;6.03;;
27412;SDS011;14871;52.702;5.230;2023-03-22T12:12:35;12.50;;;6.80;;
27412;SDS011;14871;52.702;5.230;2023-03-22T12:17:47;10.60;;;7.07;;
27412;SDS011;14871;52.702;5.230;2023-03-22T12:20:35;11.30;;;6.22;;
27412;SDS011;14871;52.702;5.230;2023-03-22T12:23:14;14.18;;;7.35;;
27412;SDS011;14871;52.702;5.230;2023-03-22T12:26:04;13.02;;;7.10;;
27412;SDS011;14871;52.702;5.230;2023-03-22T12:28:53;8.50;;;6.45;;
27412;SDS011;14871;52.702;5.230;2023-03-22T12:31:34;13.05;;;7.85;;
27412;SDS011;14871;52.702;5.230;2023-03-22T12:34:06;14.38;;;7.38;;
27412;SDS011;14871;52.702;5.230;2023-03-22T12:36:41;15.48;;;6.88;;
27412;SDS011;14871;52.702;5.230;2023-03-22T12:39:20;12.43;;;6.70;;
27412;SDS011;14871;52.702;5.230;2023-03-22T12:41:49;13.80;;;7.28;;
27412;SDS011;14871;52.702;5.230;2023-03-22T12:44:22;12.55;;;7.25;;
27412;SDS011;14871;52.702;5.230;2023-03-22T12:46:52;12.15;;;7.03;;
27412;SDS011;14871;52.702;5.230;2023-03-22T12:52:14;13.07;;;7.20;;
27412;SDS011;14871;52.702;5.230;2023-03-22T12:54:45;12.73;;;7.60;;
27412;SDS011;14871;52.702;5.230;2023-03-22T12:57:15;12.00;;;6.95;;
27412;SDS011;14871;52.702;5.230;2023-03-22T12:59:42;10.60;;;6.75;;
27412;SDS011;14871;52.702;5.230;2023-03-22T13:02:14;12.13;;;6.88;;
27412;SDS011;14871;52.702;5.230;2023-03-22T13:05:05;11.35;;;7.28;;
27412;SDS011;14871;52.702;5.230;2023-03-22T13:07:37;15.18;;;7.00;;
27412;SDS011;14871;52.702;5.230;2023-03-22T13:21:20;10.80;;;7.22;;
27412;SDS011;14871;52.702;5.230;2023-03-22T13:24:18;9.68;;;6.32;;
27412;SDS011;14871;52.702;5.230;2023-03-22T13:26:47;9.70;;;6.45;;
27412;SDS011;14871;52.702;5.230;2023-03-22T13:29:24;14.02;;;7.55;;
27412;SDS011;14871;52.702;5.230;2023-03-22T13:31:56;11.70;;;7.22;;
27412;SDS011;14871;52.702;5.230;2023-03-22T13:34:38;11.30;;;6.45;;
27412;SDS011;14871;52.702;5.230;2023-03-22T13:42:38;11.18;;;7.50;;
27412;SDS011;14871;52.702;5.230;2023-03-22T13:45:18;13.13;;;7.05;;
27412;SDS011;14871;52.702;5.230;2023-03-22T13:48:08;11.77;;;7.82;;
27412;SDS011;14871;52.702;5.230;2023-03-22T13:50:36;13.50;;;8.05;;
27412;SDS011;14871;52.702;5.230;2023-03-22T13:53:12;12.77;;;7.40;;
27412;SDS011;14871;52.702;5.230;2023-03-22T13:58:33;10.45;;;7.47;;
27412;SDS011;14871;52.702;5.230;2023-03-22T14:03:55;11.75;;;7.50;;
27412;SDS011;14871;52.702;5.230;2023-03-22T14:06:24;13.32;;;7.25;;
27412;SDS011;14871;52.702;5.230;2023-03-22T14:09:08;12.32;;;7.78;;
27412;SDS011;14871;52.702;5.230;2023-03-22T14:11:46;10.75;;;7.75;;
27412;SDS011;14871;52.702;5.230;2023-03-22T14:14:20;12.70;;;7.60;;
27412;SDS011;14871;52.702;5.230;2023-03-22T14:16:56;16.20;;;8.20;;
27412;SDS011;14871;52.702;5.230;2023-03-22T14:19:29;11.50;;;9.27;;
27412;SDS011;14871;52.702;5.230;2023-03-22T14:21:59;16.23;;;10.02;;
27412;SDS011;14871;52.702;5.230;2023-03-22T14:24:29;13.43;;;9.95;;
27412;SDS011;14871;52.702;5.230;2023-03-22T14:26:57;15.57;;;9.63;;
27412;SDS011;14871;52.702;5.230;2023-03-22T14:29:25;17.60;;;10.23;;
27412;SDS011;14871;52.702;5.230;2023-03-22T14:32:01;14.27;;;10.38;;
27412;SDS011;14871;52.702;5.230;2023-03-22T14:34:32;14.25;;;9.50;;
27412;SDS011;14871;52.702;5.230;2023-03-22T14:37:01;13.52;;;9.80;;
27412;SDS011;14871;52.702;5.230;2023-03-22T14:39:32;10.85;;;9.38;;
27412;SDS011;14871;52.702;5.230;2023-03-22T14:44:57;15.55;;;9.40;;
27412;SDS011;14871;52.702;5.230;2023-03-22T14:47:25;13.25;;;10.10;;
27412;SDS011;14871;52.702;5.230;2023-03-22T14:49:54;15.07;;;9.55;;
27412;SDS011;14871;52.702;5.230;2023-03-22T14:52:29;17.48;;;9.68;;
27412;SDS011;14871;52.702;5.230;2023-03-22T14:54:57;15.88;;;9.00;;
27412;SDS011;14871;52.702;5.230;2023-03-22T14:57:28;15.88;;;8.93;;
27412;SDS011;14871;52.702;5.230;2023-03-22T14:59:57;11.52;;;9.18;;
27412;SDS011;14871;52.702;5.230;2023-03-22T15:04:50;14.55;;;10.23;;
27412;SDS011;14871;52.702;5.230;2023-03-22T15:07:17;19.17;;;9.85;;
27412;SDS011;14871;52.702;5.230;2023-03-22T15:09:44;14.27;;;9.77;;
27412;SDS011;14871;52.702;5.230;2023-03-22T15:12:10;11.05;;;9.75;;
27412;SDS011;14871;52.702;5.230;2023-03-22T15:14:36;14.07;;;9.35;;
27412;SDS011;14871;52.702;5.230;2023-03-22T15:17:03;14.48;;;11.13;;
27412;SDS011;14871;52.702;5.230;2023-03-22T15:19:36;14.27;;;10.07;;
27412;SDS011;14871;52.702;5.230;2023-03-22T15:22:09;14.88;;;10.10;;
27412;SDS011;14871;52.702;5.230;2023-03-22T15:24:38;13.63;;;10.60;;
27412;SDS011;14871;52.702;5.230;2023-03-22T15:27:06;14.13;;;9.45;;
27412;SDS011;14871;52.702;5.230;2023-03-22T15:29:39;14.63;;;9.63;;
27412;SDS011;14871;52.702;5.230;2023-03-22T15:32:08;14.77;;;8.50;;
27412;SDS011;14871;52.702;5.230;2023-03-22T15:34:42;13.55;;;9.15;;
27412;SDS011;14871;52.702;5.230;2023-03-22T15:37:12;13.73;;;9.07;;
27412;SDS011;14871;52.702;5.230;2023-03-22T15:39:42;12.18;;;9.00;;
27412;SDS011;14871;52.702;5.230;2023-03-22T15:44:37;14.20;;;9.13;;
27412;SDS011;14871;52.702;5.230;2023-03-22T15:57:20;11.60;;;8.88;;
27412;SDS011;14871;52.702;5.230;2023-03-22T15:59:50;11.55;;;9.23;;
27412;SDS011;14871;52.702;5.230;2023-03-22T16:02:32;13.88;;;10.15;;
27412;SDS011;14871;52.702;5.230;2023-03-22T16:04:58;13.38;;;9.50;;
27412;SDS011;14871;52.702;5.230;2023-03-22T16:07:26;16.35;;;10.73;;
27412;SDS011;14871;52.702;5.230;2023-03-22T16:09:53;14.20;;;10.43;;
27412;SDS011;14871;52.702;5.230;2023-03-22T16:12:20;18.00;;;11.60;;
27412;SDS011;14871;52.702;5.230;2023-03-22T16:14:47;17.90;;;12.10;;
27412;SDS011;14871;52.702;5.230;2023-03-22T16:17:17;15.93;;;12.00;;
27412;SDS011;14871;52.702;5.230;2023-03-22T16:19:48;14.32;;;11.68;;
27412;SDS011;14871;52.702;5.230;2023-03-22T16:22:15;14.43;;;10.98;;
27412;SDS011;14871;52.702;5.230;2023-03-22T16:24:41;16.45;;;12.35;;
27412;SDS011;14871;52.702;5.230;2023-03-22T16:29:43;16.85;;;13.10;;
27412;SDS011;14871;52.702;5.230;2023-03-22T16:32:13;18.80;;;12.43;;
27412;SDS011;14871;52.702;5.230;2023-03-22T16:34:41;15.35;;;10.18;;
27412;SDS011;14871;52.702;5.230;2023-03-22T16:37:15;16.20;;;11.80;;
27412;SDS011;14871;52.702;5.230;2023-03-22T16:39:42;14.55;;;11.02;;
27412;SDS011;14871;52.702;5.230;2023-03-22T16:42:12;15.88;;;11.25;;
27412;SDS011;14871;52.702;5.230;2023-03-22T16:44:40;17.40;;;11.10;;
27412;SDS011;14871;52.702;5.230;2023-03-22T16:47:10;11.27;;;9.40;;
27412;SDS011;14871;52.702;5.230;2023-03-22T16:49:37;13.82;;;9.88;;
27412;SDS011;14871;52.702;5.230;2023-03-22T16:52:02;16.42;;;10.57;;
27412;SDS011;14871;52.702;5.230;2023-03-22T16:54:28;15.32;;;9.60;;